Time;durP1;ratioP1;P1;durP2;ratioP2;P2;SDS_P1;SDS_P2;PMS_P1;PMS_P2;Temp;Humidity;BMP_temperature;BMP_pressure;BME280_temperature;BME280_humidity;BME280_pressure;Samples;Min_cycle;Max_cycle;Signal;HPM_P1;HPM_P2
2022/04/09 00:02:04;;;;;;;2.35;0.40;;;;;;;2.85;50.08;99856.88;5045939;28;20052;-73
2022/04/09 00:04:30;;;;;;;6.20;0.30;;;;;;;2.69;49.91;99858.97;5046972;28;20098;-73
2022/04/09 00:06:55;;;;;;;3.15;0.63;;;;;;;2.86;49.70;99863.72;5047337;28;20061;-73
2022/04/09 00:09:21;;;;;;;0.70;0.17;;;;;;;2.88;49.26;99859.38;5030987;28;20044;-73
2022/04/09 00:11:47;;;;;;;4.60;0.22;;;;;;;2.80;49.20;99863.88;5044516;28;20539;-73
2022/04/09 00:14:12;;;;;;;6.07;0.15;;;;;;;2.59;49.12;99865.22;5046921;28;20578;-74
2022/04/09 00:16:41;;;;;;;2.20;0.15;;;;;;;2.51;49.43;99868.84;5044263;28;20077;-73
2022/04/09 00:19:07;;;;;;;6.07;0.90;;;;;;;2.39;49.63;99870.84;5046267;28;20059;-72
2022/04/09 00:21:32;;;;;;;7.93;0.28;;;;;;;2.13;50.34;99873.09;5016187;28;20115;-73
2022/04/09 00:23:58;;;;;;;1.27;0.20;;;;;;;2.13;50.25;99878.25;5025096;28;20509;-73
2022/04/09 00:26:24;;;;;;;3.05;0.20;;;;;;;2.07;50.19;99883.53;5033861;28;20059;-73
2022/04/09 00:28:49;;;;;;;0.30;0.10;;;;;;;1.91;50.77;99883.00;5044741;28;20479;-72
2022/04/09 00:31:15;;;;;;;3.22;0.52;;;;;;;1.96;51.46;99895.78;5045332;28;20052;-73
2022/04/09 00:33:40;;;;;;;2.25;0.10;;;;;;;2.03;51.18;99892.19;5045320;28;20576;-72
2022/04/09 00:36:06;;;;;;;4.00;0.30;;;;;;;2.03;50.83;99888.78;5041750;28;20041;-73
2022/04/09 00:38:32;;;;;;;5.03;0.25;;;;;;;2.03;50.99;99893.94;5029022;28;20567;-73
2022/04/09 00:40:57;;;;;;;8.82;0.30;;;;;;;2.02;51.08;99889.66;5043914;28;20102;-73
2022/04/09 00:43:23;;;;;;;3.50;0.63;;;;;;;1.91;51.22;99901.03;5044961;28;20397;-73
2022/04/09 00:45:49;;;;;;;5.95;0.20;;;;;;;1.86;51.55;99895.13;5019903;28;20087;-72
2022/04/09 00:48:16;;;;;;;5.00;0.47;;;;;;;2.04;51.16;99909.38;5011348;28;20029;-73
2022/04/09 00:50:42;;;;;;;1.05;0.10;;;;;;;2.09;51.08;99907.56;5026374;28;20051;-73
2022/04/09 00:53:09;;;;;;;6.47;0.38;;;;;;;2.27;51.11;99908.91;5029918;28;20036;-73
2022/04/09 00:58:20;;;;;;;9.52;0.75;;;;;;;2.37;50.40;99919.03;5046470;28;20095;-73
2022/04/09 01:00:47;;;;;;;2.10;0.10;;;;;;;2.41;50.17;99918.91;5036470;28;20044;-73
2022/04/09 01:03:19;;;;;;;5.10;0.38;;;;;;;1.97;51.18;99924.97;5046273;28;20043;-74
2022/04/09 01:05:45;;;;;;;1.17;0.35;;;;;;;2.00;50.85;99928.38;5040322;28;20047;-73
2022/04/09 01:08:10;;;;;;;3.58;0.55;;;;;;;2.03;50.88;99938.59;5045087;28;20029;-74
2022/04/09 01:10:39;;;;;;;3.25;0.20;;;;;;;1.98;51.19;99934.44;5042155;28;20068;-73
2022/04/09 01:13:06;;;;;;;3.13;0.17;;;;;;;1.94;51.45;99934.47;5043101;28;20051;-72
2022/04/09 01:15:32;;;;;;;1.73;0.38;;;;;;;2.13;51.08;99944.41;5026576;28;20581;-72
2022/04/09 01:18:00;;;;;;;1.92;0.20;;;;;;;2.33;50.77;99947.47;5044790;28;20519;-74
2022/04/09 01:20:26;;;;;;;5.53;0.32;;;;;;;2.08;51.61;99946.25;5042635;28;20096;-72
2022/04/09 01:22:52;;;;;;;2.42;0.17;;;;;;;2.47;50.78;99954.06;5029337;28;20339;-72
2022/04/09 01:25:19;;;;;;;3.63;0.35;;;;;;;2.66;50.23;99960.50;5044418;28;20043;-72
2022/04/09 01:27:47;;;;;;;6.88;0.20;;;;;;;2.54;50.49;99960.78;5042483;28;20029;-72
2022/04/09 01:30:13;;;;;;;3.60;0.30;;;;;;;2.64;50.27;99966.59;5044044;28;20250;-72
2022/04/09 01:32:39;;;;;;;2.90;0.50;;;;;;;2.52;50.64;99975.44;5042873;28;20057;-74
2022/04/09 01:35:05;;;;;;;7.40;0.55;;;;;;;2.40;51.15;99975.69;5051541;28;20448;-73
2022/04/09 01:37:32;;;;;;;9.65;0.63;;;;;;;2.45;50.51;99976.47;5035927;28;20281;-74
2022/04/09 01:39:58;;;;;;;8.45;0.75;;;;;;;2.55;50.13;99978.81;5032154;28;20075;-74
2022/04/09 01:42:26;;;;;;;8.80;0.30;;;;;;;2.37;50.23;99980.91;5042108;28;20575;-72
2022/04/09 01:44:53;;;;;;;5.25;0.43;;;;;;;2.70;49.38;99982.78;5025368;28;20037;-72
2022/04/09 01:47:18;;;;;;;6.13;0.40;;;;;;;2.44;49.70;99985.06;5043126;28;20138;-72
2022/04/09 01:49:44;;;;;;;5.65;0.22;;;;;;;2.60;49.06;99986.47;5041508;28;20681;-72
2022/04/09 01:52:09;;;;;;;4.45;0.45;;;;;;;2.44;49.21;99990.22;5031747;28;20243;-73
2022/04/09 01:54:35;;;;;;;8.25;0.30;;;;;;;2.10;49.31;99996.03;5053176;28;20064;-72
2022/04/09 01:57:00;;;;;;;2.70;0.20;;;;;;;2.38;47.74;100000.66;5022499;28;20041;-72
2022/04/09 01:59:26;;;;;;;2.83;0.22;;;;;;;2.35;47.91;99994.69;5036354;28;20067;-72
2022/04/09 02:01:53;;;;;;;4.22;0.10;;;;;;;2.21;47.86;99996.69;5049198;28;20029;-72
2022/04/09 02:04:21;;;;;;;1.98;0.40;;;;;;;2.40;47.24;100004.06;5052221;28;20029;-72
2022/04/09 02:06:47;;;;;;;1.90;0.25;;;;;;;1.97;48.05;100010.03;5015505;28;20049;-72
2022/04/09 02:09:16;;;;;;;7.40;0.30;;;;;;;2.28;47.27;100016.31;5030120;28;20028;-72
2022/04/09 02:11:43;;;;;;;7.05;0.30;;;;;;;2.19;47.63;100013.91;5025652;28;20064;-72
2022/04/09 02:14:10;;;;;;;6.40;0.20;;;;;;;2.22;47.21;100024.19;5048840;28;20033;-72
2022/04/09 02:16:39;;;;;;;4.38;0.35;;;;;;;2.22;47.40;100021.59;5015466;28;20041;-72
2022/04/09 02:19:05;;;;;;;2.50;0.28;;;;;;;2.21;47.49;100027.63;5032960;28;20403;-72
2022/04/09 02:21:31;;;;;;;6.60;0.68;;;;;;;2.10;47.51;100030.41;5040152;28;20048;-72
2022/04/09 02:23:57;;;;;;;7.32;0.52;;;;;;;2.19;47.03;100034.53;5037971;28;20066;-73
2022/04/09 02:26:25;;;;;;;0.70;0.10;;;;;;;2.06;47.74;100035.63;5048222;28;20045;-72
2022/04/09 02:28:52;;;;;;;4.93;0.43;;;;;;;2.10;47.46;100037.28;5032921;28;20137;-72
2022/04/09 02:31:22;;;;;;;9.73;0.50;;;;;;;1.84;48.54;100040.31;5045396;28;20470;-72
2022/04/09 02:33:48;;;;;;;4.38;0.30;;;;;;;1.97;47.90;100040.97;5046556;28;20104;-73
2022/04/09 02:36:15;;;;;;;4.15;0.85;;;;;;;1.90;47.80;100051.38;5053138;28;20781;-72
2022/04/09 02:38:43;;;;;;;3.42;0.55;;;;;;;1.85;47.97;100053.19;5046554;28;20097;-71
2022/04/09 02:41:09;;;;;;;4.15;0.47;;;;;;;1.82;48.10;100058.41;5021470;28;20068;-72
2022/04/09 02:43:36;;;;;;;9.43;0.45;;;;;;;1.91;47.52;100050.50;5042410;28;20029;-73
2022/04/09 02:46:02;;;;;;;12.23;0.73;;;;;;;1.69;47.45;100052.59;5034463;28;20041;-74
2022/04/09 02:48:29;;;;;;;6.85;1.17;;;;;;;1.87;46.89;100061.75;5048830;28;20047;-73
2022/04/09 02:50:54;;;;;;;3.45;0.50;;;;;;;1.86;46.77;100061.75;5030154;28;20040;-73
2022/04/09 02:53:22;;;;;;;7.78;1.30;;;;;;;2.19;45.44;100062.91;5047158;28;20033;-73
2022/04/09 02:55:48;;;;;;;8.07;0.52;;;;;;;2.08;46.05;100065.66;5024046;28;20041;-72
2022/04/09 02:58:13;;;;;;;7.20;0.73;;;;;;;2.05;45.65;100070.03;5032215;28;20112;-72
2022/04/09 03:00:42;;;;;;;7.60;0.35;;;;;;;1.84;46.79;100072.13;5013725;28;20041;-72
2022/04/09 03:03:08;;;;;;;8.13;0.85;;;;;;;1.84;47.08;100082.41;5055067;28;20029;-73
2022/04/09 03:05:43;;;;;;;5.13;0.65;;;;;;;2.05;46.65;100085.50;5039708;28;20045;-73
2022/04/09 03:08:08;;;;;;;5.80;0.60;;;;;;;2.03;47.01;100088.09;5028334;28;20176;-73
2022/04/09 03:10:34;;;;;;;5.30;0.68;;;;;;;1.54;48.96;100098.34;5042722;28;20076;-73
2022/04/09 03:13:00;;;;;;;4.25;0.50;;;;;;;1.52;49.05;100091.47;5046457;28;20071;-73
2022/04/09 03:15:26;;;;;;;3.15;0.22;;;;;;;1.57;49.23;100093.13;5032276;28;20082;-72
2022/04/09 03:17:53;;;;;;;6.65;0.55;;;;;;;1.61;49.07;100099.94;5030238;28;20577;-72
2022/04/09 03:20:21;;;;;;;4.40;0.47;;;;;;;1.60;48.86;100087.97;5045899;28;20132;-73
2022/04/09 03:22:48;;;;;;;3.08;0.55;;;;;;;1.60;48.78;100095.69;5054083;28;20035;-73
2022/04/09 03:25:21;;;;;;;8.10;0.40;;;;;;;1.79;48.11;100094.50;5030011;28;20039;-72
2022/04/09 03:27:51;;;;;;;7.43;0.32;;;;;;;1.76;48.23;100093.72;5032542;28;20077;-73
2022/04/09 03:30:17;;;;;;;10.18;1.60;;;;;;;1.59;48.87;100097.38;5045430;28;20569;-73
2022/04/09 03:32:45;;;;;;;3.20;0.25;;;;;;;1.57;48.58;100104.28;5033167;28;20127;-73
2022/04/09 03:35:16;;;;;;;6.03;0.10;;;;;;;1.84;47.50;100107.31;5046799;28;20029;-73
2022/04/09 03:37:45;;;;;;;4.88;0.32;;;;;;;1.94;47.14;100114.88;5031314;28;20067;-72
2022/04/09 03:40:15;;;;;;;5.70;0.75;;;;;;;1.78;47.55;100118.59;5040564;28;20029;-73
2022/04/09 03:42:42;;;;;;;3.95;0.45;;;;;;;1.90;47.01;100117.53;5045016;28;20400;-73
2022/04/09 03:45:08;;;;;;;4.40;0.30;;;;;;;1.74;47.58;100124.66;5045937;28;20039;-73
2022/04/09 03:47:35;;;;;;;3.38;0.90;;;;;;;1.54;48.27;100124.94;5030544;28;20033;-73
2022/04/09 03:50:05;;;;;;;3.03;0.35;;;;;;;1.73;47.89;100128.13;5031365;28;20624;-72
2022/04/09 03:52:31;;;;;;;6.85;0.50;;;;;;;1.89;47.00;100124.41;5047223;28;20044;-72
2022/04/09 03:54:57;;;;;;;1.95;0.20;;;;;;;1.84;47.15;100128.81;5047495;28;20717;-73
2022/04/09 03:57:22;;;;;;;1.67;0.30;;;;;;;1.72;47.88;100128.97;5043825;28;20043;-73
2022/04/09 03:59:54;;;;;;;1.05;0.20;;;;;;;1.75;48.00;100138.38;5029258;28;20037;-73
2022/04/09 04:02:19;;;;;;;1.83;0.80;;;;;;;1.65;48.50;100127.38;5046028;28;20078;-73
2022/04/09 04:04:45;;;;;;;5.82;0.28;;;;;;;1.48;49.07;100138.78;5030101;28;20225;-73
2022/04/09 04:07:13;;;;;;;4.95;0.32;;;;;;;1.36;49.87;100140.63;5013046;28;20039;-72
2022/04/09 04:09:41;;;;;;;4.47;0.47;;;;;;;1.43;49.78;100150.84;5026555;28;20036;-73
2022/04/09 04:12:07;;;;;;;3.50;1.05;;;;;;;1.06;50.88;100153.00;5013785;28;20037;-72
2022/04/09 04:14:33;;;;;;;6.80;0.88;;;;;;;1.18;50.56;100155.44;5031919;28;20107;-72
2022/04/09 04:16:59;;;;;;;3.28;0.55;;;;;;;1.44;49.64;100154.28;5040829;28;20131;-72
2022/04/09 04:19:26;;;;;;;5.35;0.30;;;;;;;1.37;49.73;100161.19;5032380;28;20033;-72
2022/04/09 04:21:53;;;;;;;5.18;0.30;;;;;;;1.33;50.16;100159.56;5042778;28;20043;-72
2022/04/09 04:24:19;;;;;;;2.72;0.70;;;;;;;1.32;49.96;100166.41;5044899;28;20366;-72
2022/04/09 04:26:46;;;;;;;6.20;0.68;;;;;;;1.51;49.27;100166.22;5041672;28;20463;-71
2022/04/09 04:29:18;;;;;;;9.90;0.98;;;;;;;1.27;50.07;100167.34;5032214;28;20064;-72
2022/04/09 04:31:44;;;;;;;6.85;0.90;;;;;;;1.36;49.87;100174.94;5016837;28;20532;-72
2022/04/09 04:34:10;;;;;;;8.38;0.60;;;;;;;1.22;49.91;100166.56;5031999;28;20412;-73
2022/04/09 04:36:40;;;;;;;5.35;0.93;;;;;;;1.02;50.57;100177.94;5031847;28;20095;-71
2022/04/09 04:39:06;;;;;;;5.28;0.50;;;;;;;1.47;49.63;100191.16;5026177;28;20037;-72
2022/04/09 04:41:32;;;;;;;3.28;0.50;;;;;;;1.76;48.76;100205.34;5044926;28;20051;-73
2022/04/09 04:43:58;;;;;;;2.58;0.35;;;;;;;1.84;49.02;100213.84;5043578;28;20036;-72
2022/04/09 04:46:31;;;;;;;;;;;;;;;1.30;52.00;100198.19;5044920;28;20041;-72
2022/04/09 04:48:56;;;;;;;7.75;0.35;;;;;;;1.54;51.59;100196.22;5036625;28;19917;-71
2022/04/09 04:51:24;;;;;;;3.65;0.38;;;;;;;1.25;52.94;100218.00;5045821;28;20119;-71
2022/04/09 04:53:49;;;;;;;5.30;0.30;;;;;;;1.42;52.72;100223.84;5044141;28;20032;-71
2022/04/09 04:56:15;;;;;;;5.28;0.30;;;;;;;1.32;53.42;100217.06;5043957;28;20064;-71
2022/04/09 04:58:48;;;;;;;6.03;0.55;;;;;;;1.26;53.26;100217.13;5047654;28;20071;-70
2022/04/09 05:01:15;;;;;;;2.75;0.38;;;;;;;1.27;53.56;100218.84;5044641;28;20100;-71
2022/04/09 05:03:45;;;;;;;1.55;0.13;;;;;;;1.45;52.89;100210.91;5060652;28;20090;-71
2022/04/09 05:06:21;;;;;;;5.78;0.30;;;;;;;1.13;54.13;100215.56;5020195;28;20067;-70
2022/04/09 05:08:49;;;;;;;7.05;0.30;;;;;;;1.34;53.73;100219.63;5013090;28;20475;-71
2022/04/09 05:11:22;;;;;;;10.73;0.30;;;;;;;1.86;52.35;100222.41;5012772;28;20120;-71
2022/04/09 05:13:48;;;;;;;9.23;0.57;;;;;;;2.02;51.81;100219.56;5024037;28;20033;-71
2022/04/09 05:16:14;;;;;;;4.63;0.30;;;;;;;1.86;51.56;100224.97;5034273;28;20340;-71
2022/04/09 05:18:49;;;;;;;5.75;0.40;;;;;;;1.82;52.32;100227.59;5043769;28;20383;-71
2022/04/09 05:21:15;;;;;;;12.75;0.40;;;;;;;1.69;52.63;100232.09;5046304;28;20045;-71
2022/04/09 05:23:41;;;;;;;7.35;1.13;;;;;;;1.98;52.40;100229.09;5029609;28;20042;-71
2022/04/09 05:26:07;;;;;;;4.53;0.70;;;;;;;1.92;52.93;100235.19;5029006;28;20033;-71
2022/04/09 05:28:33;;;;;;;8.18;0.50;;;;;;;2.26;51.93;100234.66;5034339;28;20310;-71
2022/04/09 05:30:58;;;;;;;6.07;0.50;;;;;;;2.55;51.44;100248.81;5044540;28;20037;-71
2022/04/09 05:33:24;;;;;;;14.63;0.60;;;;;;;2.48;51.65;100254.97;5034844;28;20034;-71
2022/04/09 05:35:56;;;;;;;15.23;0.80;;;;;;;2.37;51.50;100267.19;5042903;28;20521;-71
2022/04/09 05:38:23;;;;;;;10.43;0.90;;;;;;;1.49;53.87;100274.41;5046150;28;20102;-71
2022/04/09 05:40:49;;;;;;;5.05;0.73;;;;;;;1.96;53.10;100263.50;5040153;28;20100;-71
2022/04/09 05:43:18;;;;;;;7.53;0.60;;;;;;;2.52;52.17;100265.22;5044867;28;20130;-71
2022/04/09 05:45:46;;;;;;;1.40;0.20;;;;;;;3.57;49.17;100264.16;5041203;28;20033;-71
2022/04/09 05:48:14;;;;;;;7.60;0.52;;;;;;;3.06;49.84;100268.59;5047243;28;20068;-70
2022/04/09 05:50:58;;;;;;;3.95;0.43;;;;;;;2.51;51.23;100266.09;5043690;28;20029;-71
2022/04/09 05:53:26;;;;;;;3.45;0.30;;;;;;;1.97;52.00;100280.66;5045659;28;20035;-70
2022/04/09 05:55:54;;;;;;;2.20;0.55;;;;;;;2.86;50.67;100276.69;5040595;28;20044;-70
2022/04/09 05:58:20;;;;;;;4.45;0.10;;;;;;;4.00;48.41;100273.56;5048217;28;20483;-71
2022/04/09 06:00:49;;;;;;;0.40;0.10;;;;;;;5.55;45.10;100284.41;5027513;28;20464;-71
2022/04/09 06:03:23;;;;;;;3.05;0.73;;;;;;;7.61;41.09;100280.31;5031052;28;20025;-71
2022/04/09 06:05:50;;;;;;;3.25;0.20;;;;;;;8.77;36.63;100284.47;5057481;28;21481;-71
2022/04/09 06:08:24;;;;;;;11.75;0.20;;;;;;;9.00;36.30;100283.50;5033785;28;20136;-72
2022/04/09 06:10:50;;;;;;;2.97;0.20;;;;;;;9.51;36.04;100292.56;5025105;28;20064;-72
2022/04/09 06:13:16;;;;;;;2.47;0.17;;;;;;;10.46;33.00;100295.16;5029705;28;20123;-71
2022/04/09 06:15:45;;;;;;;4.00;0.20;;;;;;;10.79;33.19;100297.88;5037364;28;20049;-71
2022/04/09 06:18:16;;;;;;;7.55;0.25;;;;;;;10.42;33.83;100304.06;5012921;28;20087;-72
2022/04/09 06:20:42;;;;;;;5.05;0.30;;;;;;;10.30;34.50;100304.63;5027604;28;20048;-72
2022/04/09 06:23:11;;;;;;;6.22;0.30;;;;;;;11.83;30.67;100306.47;5034540;28;20033;-72
2022/04/09 06:25:37;;;;;;;1.90;0.20;;;;;;;12.00;31.15;100309.03;5026537;28;20045;-74
2022/04/09 06:28:03;;;;;;;3.67;0.17;;;;;;;10.80;31.85;100310.00;5047880;28;20043;-72
2022/04/09 06:30:31;;;;;;;2.58;0.20;;;;;;;10.93;32.44;100307.66;5053975;28;20063;-71
2022/04/09 06:33:03;;;;;;;2.83;0.20;;;;;;;11.77;32.67;100312.00;5050674;28;20830;-72
2022/04/09 06:35:31;;;;;;;6.65;0.40;;;;;;;12.59;30.52;100311.84;5044853;28;20033;-72
2022/04/09 06:37:57;;;;;;;1.98;0.10;;;;;;;12.11;30.59;100311.06;5043032;28;20037;-72
2022/04/09 06:40:23;;;;;;;11.95;0.30;;;;;;;11.82;31.77;100320.50;5038872;28;20037;-73
2022/04/09 06:42:48;;;;;;;7.57;0.45;;;;;;;13.23;30.05;100325.63;5030947;28;20036;-72
2022/04/09 06:45:39;;;;;;;3.30;0.20;;;;;;;10.83;33.36;100325.56;5047038;28;20040;-72
2022/04/09 06:48:24;;;;;;;16.70;0.75;;;;;;;9.25;35.90;100325.00;5049623;28;20535;-72
2022/04/09 06:51:08;;;;;;;5.60;0.30;;;;;;;7.48;40.47;100333.66;5028438;28;20195;-72
2022/04/09 06:53:34;;;;;;;4.13;0.30;;;;;;;7.59;40.56;100331.53;5029486;28;20155;-72
2022/04/09 06:56:00;;;;;;;5.45;0.30;;;;;;;8.89;37.03;100330.84;5031550;28;20366;-72
2022/04/09 06:58:25;;;;;;;5.70;0.85;;;;;;;7.59;39.33;100346.31;5031864;28;20521;-72
2022/04/09 07:00:51;;;;;;;6.47;0.40;;;;;;;6.57;41.78;100354.03;5037180;28;20619;-72
2022/04/09 07:03:16;;;;;;;5.88;0.40;;;;;;;8.37;38.70;100353.78;5049818;28;20036;-72
2022/04/09 07:05:42;;;;;;;5.93;0.30;;;;;;;10.57;34.69;100359.94;5044382;28;20571;-72
2022/04/09 07:08:08;;;;;;;4.78;0.28;;;;;;;13.58;30.55;100348.06;5051232;28;20054;-72
2022/04/09 07:10:37;;;;;;;3.75;0.75;;;;;;;13.62;29.43;100349.56;5059259;28;20037;-71
2022/04/09 07:13:04;;;;;;;4.20;0.32;;;;;;;11.87;32.69;100355.16;5060030;28;20040;-73
2022/04/09 07:15:29;;;;;;;3.30;0.30;;;;;;;11.18;31.81;100361.34;5054563;28;20052;-72
2022/04/09 07:17:55;;;;;;;6.22;0.55;;;;;;;10.45;34.17;100371.81;5046154;28;20033;-73
2022/04/09 07:20:21;;;;;;;7.72;0.30;;;;;;;6.71;40.32;100375.22;5048631;28;20033;-72
2022/04/09 07:22:46;;;;;;;2.63;0.22;;;;;;;5.32;42.95;100391.25;5043922;28;20031;-72
2022/04/09 07:25:12;;;;;;;1.75;0.10;;;;;;;4.55;45.95;100412.97;5034960;28;20391;-71
2022/04/09 07:27:41;;;;;;;1.33;0.50;;;;;;;2.39;50.06;100425.34;5010444;28;20042;-72
2022/04/09 07:30:16;;;;;;;0.85;0.22;;;;;;;0.62;54.40;100434.72;5031065;28;20026;-71
2022/04/09 07:32:43;;;;;;;2.35;0.10;;;;;;;0.37;53.94;100418.56;5042536;28;20410;-71
2022/04/09 07:35:09;;;;;;;2.75;0.10;;;;;;;0.83;54.00;100436.28;5029580;28;20056;-71
2022/04/09 07:37:55;;;;;;;1.77;0.20;;;;;;;0.91;54.68;100442.25;5041824;28;20404;-72
2022/04/09 07:40:24;;;;;;;1.13;0.10;;;;;;;0.94;55.38;100436.22;5047500;28;20128;-71
2022/04/09 07:42:50;;;;;;;4.35;0.45;;;;;;;1.27;54.62;100435.97;5044641;28;20033;-71
2022/04/09 07:45:16;;;;;;;2.47;0.50;;;;;;;1.49;54.48;100434.09;5048424;28;20040;-70
2022/04/09 07:47:42;;;;;;;9.00;0.30;;;;;;;1.88;53.62;100436.25;5043451;28;20040;-71
2022/04/09 07:50:10;;;;;;;3.72;0.90;;;;;;;1.88;54.11;100434.53;5049241;28;20037;-71
2022/04/09 07:52:42;;;;;;;3.88;0.60;;;;;;;5.11;51.19;100434.13;5044329;28;20139;-71
2022/04/09 07:55:11;;;;;;;2.20;0.10;;;;;;;7.74;41.94;100429.84;5038575;28;20045;-71
2022/04/09 07:57:39;;;;;;;4.97;0.75;;;;;;;8.89;39.89;100432.50;5043536;28;20295;-71
2022/04/09 08:00:05;;;;;;;2.22;0.32;;;;;;;7.59;41.46;100439.94;5048660;28;20600;-71
2022/04/09 08:02:37;;;;;;;2.95;0.10;;;;;;;8.01;41.07;100434.97;5044680;28;20178;-71
2022/04/09 08:05:03;;;;;;;8.77;0.30;;;;;;;8.34;40.05;100435.47;5063062;28;20040;-71
2022/04/09 08:07:28;;;;;;;4.18;0.25;;;;;;;8.69;38.46;100435.03;5025899;28;20052;-71
2022/04/09 08:09:54;;;;;;;9.32;0.70;;;;;;;8.55;38.30;100439.00;5027511;28;20052;-71
2022/04/09 08:12:19;;;;;;;8.32;0.73;;;;;;;10.55;36.25;100445.41;5026858;28;20041;-71
2022/04/09 08:14:45;;;;;;;7.90;0.88;;;;;;;8.79;37.09;100440.78;5027513;28;20037;-72
2022/04/09 08:17:11;;;;;;;5.50;1.17;;;;;;;7.98;38.87;100453.31;5026867;28;20033;-72
2022/04/09 08:19:36;;;;;;;2.20;0.40;;;;;;;6.14;41.69;100466.88;5025703;28;20090;-72
2022/04/09 08:22:04;;;;;;;7.97;1.15;;;;;;;5.46;43.72;100473.88;5025166;28;20318;-71
2022/04/09 08:24:29;;;;;;;3.00;0.30;;;;;;;5.08;44.35;100474.78;5029628;28;20044;-72
2022/04/09 08:26:55;;;;;;;5.18;0.22;;;;;;;5.79;42.40;100479.06;5024954;28;20036;-72
2022/04/09 08:29:20;;;;;;;2.38;0.28;;;;;;;6.64;41.37;100481.03;5027217;28;20112;-72
2022/04/09 08:31:47;;;;;;;8.60;0.63;;;;;;;7.71;40.62;100479.38;5026147;28;20158;-71
2022/04/09 08:34:17;;;;;;;6.55;0.30;;;;;;;9.05;36.67;100471.84;5024326;28;20090;-71
2022/04/09 08:36:44;;;;;;;5.25;0.68;;;;;;;9.34;36.45;100472.41;5023637;28;20727;-72
2022/04/09 08:39:10;;;;;;;5.68;0.63;;;;;;;10.04;35.94;100478.22;5026409;28;20080;-72
2022/04/09 08:41:37;;;;;;;9.45;0.95;;;;;;;9.06;36.06;100488.34;5027408;28;20037;-72
2022/04/09 08:44:03;;;;;;;2.22;0.50;;;;;;;8.07;38.39;100484.19;5044245;28;20128;-72
2022/04/09 08:46:30;;;;;;;6.55;0.52;;;;;;;8.13;39.26;100478.75;5046818;28;20048;-72
2022/04/09 08:49:04;;;;;;;10.38;0.65;;;;;;;8.75;38.59;100486.94;5042152;28;20056;-72
2022/04/09 08:51:30;;;;;;;7.38;0.40;;;;;;;7.25;40.25;100490.44;5044584;28;20144;-73
2022/04/09 08:53:57;;;;;;;11.65;1.13;;;;;;;6.11;42.96;100505.91;5044325;28;20035;-73
2022/04/09 08:56:23;;;;;;;3.75;0.40;;;;;;;4.86;46.50;100518.44;5046170;28;20127;-72
2022/04/09 08:58:49;;;;;;;8.90;0.52;;;;;;;3.28;48.87;100515.25;5043916;28;20246;-72
2022/04/09 09:01:14;;;;;;;7.25;0.63;;;;;;;3.14;49.00;100525.81;5027758;28;20041;-72
2022/04/09 09:03:40;;;;;;;3.33;0.45;;;;;;;3.37;49.77;100542.72;5046789;28;20510;-73
2022/04/09 09:06:29;;;;;;;7.45;1.13;;;;;;;3.67;50.38;100550.84;5046231;28;20028;-72
2022/04/09 09:08:57;;;;;;;5.07;1.25;;;;;;;3.91;49.56;100555.63;5031961;28;20037;-72
2022/04/09 09:11:24;;;;;;;5.75;0.40;;;;;;;3.91;49.30;100555.63;5044727;28;20257;-72
2022/04/09 09:13:52;;;;;;;13.70;0.73;;;;;;;3.69;49.79;100565.47;5054554;28;20141;-72
2022/04/09 09:16:26;;;;;;;4.38;0.80;;;;;;;3.71;49.36;100568.88;5046811;28;20036;-72
2022/04/09 09:18:54;;;;;;;7.15;0.70;;;;;;;4.18;48.17;100574.13;5044671;28;20036;-72
2022/04/09 09:21:23;;;;;;;16.33;2.45;;;;;;;4.06;48.44;100575.19;5047949;28;20049;-72
2022/04/09 09:23:50;;;;;;;6.60;0.50;;;;;;;4.36;47.20;100565.16;5045685;28;20037;-72
2022/04/09 09:26:26;;;;;;;12.10;1.20;;;;;;;5.25;45.49;100566.78;5043448;28;20039;-72
2022/04/09 09:28:55;;;;;;;9.00;0.50;;;;;;;6.20;43.49;100560.16;5052700;28;20106;-73
2022/04/09 09:31:44;;;;;;;8.25;1.42;;;;;;;7.78;40.51;100554.59;5044996;28;20119;-73
2022/04/09 09:34:18;;;;;;;6.45;1.52;;;;;;;8.20;40.58;100574.88;5044018;28;20081;-72
2022/04/09 09:36:45;;;;;;;6.70;0.70;;;;;;;5.25;45.92;100603.03;5045931;28;20056;-71
2022/04/09 09:39:12;;;;;;;11.00;2.55;;;;;;;4.29;47.20;100598.06;5046093;28;20096;-70
2022/04/09 09:41:50;;;;;;;12.13;1.80;;;;;;;4.10;48.92;100599.28;5044982;28;20041;-72
2022/04/09 09:44:16;;;;;;;9.55;1.40;;;;;;;4.84;47.80;100604.75;5045979;28;20028;-72
2022/04/09 09:46:47;;;;;;;8.55;1.45;;;;;;;5.01;46.78;100596.69;5045087;28;20044;-72
2022/04/09 09:49:13;;;;;;;8.63;1.38;;;;;;;5.61;46.10;100605.72;5045305;28;20154;-72
2022/04/09 09:51:39;;;;;;;7.25;0.40;;;;;;;5.67;46.09;100613.31;5043170;28;20040;-73
2022/04/09 09:54:11;;;;;;;9.38;1.10;;;;;;;5.00;45.95;100614.84;5043009;28;20043;-72
2022/04/09 09:56:39;;;;;;;8.38;1.75;;;;;;;5.23;45.05;100619.53;5044336;28;20199;-72
2022/04/09 09:59:06;;;;;;;12.23;2.28;;;;;;;5.51;44.56;100624.94;5045620;28;20570;-72
2022/04/09 10:01:35;;;;;;;6.90;1.10;;;;;;;5.64;44.57;100623.78;5046392;28;20383;-72
2022/04/09 10:04:02;;;;;;;8.93;2.20;;;;;;;6.57;42.78;100618.88;5051479;28;20032;-72
2022/04/09 10:06:28;;;;;;;13.45;2.90;;;;;;;6.85;41.40;100618.97;5026979;28;20033;-72
2022/04/09 10:08:54;;;;;;;4.85;0.50;;;;;;;6.52;41.01;100632.00;5044590;28;20036;-73
2022/04/09 10:11:20;;;;;;;2.53;0.30;;;;;;;6.60;39.86;100634.41;5044772;28;20032;-73
2022/04/09 10:13:47;;;;;;;1.60;0.40;;;;;;;5.84;39.46;100632.84;5047488;28;20037;-72
2022/04/09 10:16:18;;;;;;;5.32;0.20;;;;;;;6.38;40.17;100634.13;5047078;28;20056;-72
2022/04/09 10:18:47;;;;;;;3.28;0.40;;;;;;;5.89;42.49;100646.53;5064244;28;20095;-72
2022/04/09 10:21:13;;;;;;;3.85;0.40;;;;;;;6.20;41.18;100640.59;5047809;28;20503;-73
2022/04/09 10:23:40;;;;;;;5.05;0.55;;;;;;;4.88;42.44;100643.56;5055828;28;20259;-72
2022/04/09 10:26:06;;;;;;;3.72;0.20;;;;;;;4.75;42.65;100642.94;5034485;28;20033;-72
2022/04/09 10:28:36;;;;;;;4.20;0.25;;;;;;;5.49;42.87;100646.63;5048653;28;20037;-73
2022/04/09 10:31:22;;;;;;;6.70;0.73;;;;;;;6.27;40.98;100642.97;5046693;28;20398;-72
2022/04/09 10:33:55;;;;;;;6.85;0.65;;;;;;;6.95;40.45;100655.91;5035049;28;20037;-73
2022/04/09 10:36:42;;;;;;;6.03;0.32;;;;;;;6.59;39.71;100640.47;5056012;28;20064;-72
2022/04/09 10:39:39;;;;;;;3.50;0.60;;;;;;;7.36;38.65;100646.09;5032940;28;20037;-73
2022/04/09 10:42:09;;;;;;;10.23;1.13;;;;;;;7.16;39.32;100660.53;5048167;28;20048;-73
2022/04/09 10:44:44;;;;;;;5.60;0.85;;;;;;;6.94;36.00;100651.63;5047740;28;20348;-72
2022/04/09 10:47:14;;;;;;;10.00;0.85;;;;;;;7.02;37.20;100649.66;5049374;28;20044;-74
2022/04/09 10:49:42;;;;;;;10.07;1.05;;;;;;;8.00;35.46;100653.63;5048512;28;20029;-73
2022/04/09 10:52:19;;;;;;;4.50;0.52;;;;;;;7.51;35.89;100658.59;5040131;28;20041;-73
2022/04/09 10:55:03;;;;;;;5.88;2.33;;;;;;;9.00;35.24;100648.44;5048005;28;20098;-73
2022/04/09 10:57:43;;;;;;;7.15;0.73;;;;;;;9.17;34.27;100663.47;5064506;28;20544;-73
2022/04/09 11:00:29;;;;;;;7.13;1.05;;;;;;;8.52;34.30;100677.94;5049570;28;20119;-73
2022/04/09 11:03:04;;;;;;;5.57;0.88;;;;;;;8.58;34.00;100667.28;5042062;28;20514;-73
2022/04/09 11:05:30;;;;;;;6.43;0.70;;;;;;;7.44;34.78;100680.50;5021311;28;20041;-73
2022/04/09 11:08:18;;;;;;;11.30;0.80;;;;;;;6.69;36.78;100675.69;5045736;28;20557;-73
2022/04/09 11:10:44;;;;;;;5.18;0.57;;;;;;;6.80;38.16;100672.81;5046661;28;20037;-73
2022/04/09 11:13:12;;;;;;;9.55;0.30;;;;;;;6.68;36.79;100686.97;5056710;28;20029;-73
2022/04/09 11:15:43;;;;;;;2.70;0.40;;;;;;;7.50;36.17;100695.91;5045974;28;20428;-75
2022/04/09 11:18:09;;;;;;;7.07;1.35;;;;;;;7.52;36.02;100688.91;5048006;28;20563;-73
2022/04/09 11:20:36;;;;;;;8.30;0.55;;;;;;;7.23;35.46;100693.22;5048113;28;20147;-73
2022/04/09 11:23:16;;;;;;;3.10;0.50;;;;;;;7.04;36.23;100689.44;5047392;28;20028;-73
2022/04/09 11:25:43;;;;;;;13.57;0.63;;;;;;;7.00;35.93;100696.50;5053518;28;20446;-72
2022/04/09 11:28:19;;;;;;;8.52;1.10;;;;;;;7.31;36.57;100706.88;5050262;28;20043;-73
2022/04/09 11:31:04;;;;;;;5.00;0.50;;;;;;;8.46;34.63;100705.03;5047909;28;20068;-73
2022/04/09 11:33:30;;;;;;;3.78;0.75;;;;;;;7.39;35.38;100718.78;5049489;28;20461;-73
2022/04/09 11:35:57;;;;;;;7.05;0.55;;;;;;;6.72;34.79;100721.50;5053539;28;20575;-73
2022/04/09 11:38:23;;;;;;;7.55;1.10;;;;;;;7.01;34.84;100724.16;5054696;28;20119;-73
2022/04/09 11:40:49;;;;;;;5.50;0.60;;;;;;;6.69;34.94;100728.50;5044808;28;20048;-73
2022/04/09 11:43:16;;;;;;;4.90;0.80;;;;;;;7.11;34.44;100724.78;5047458;28;20032;-73